sensor_id;sensor_type;location;lat;lon;timestamp;temperature;humidity
52739;DHT22;52466;40.122;18.318;2022-09-17T00:01:40;24.50;85.50
52739;DHT22;52466;40.122;18.318;2022-09-17T00:04:48;24.50;85.40
52739;DHT22;52466;40.122;18.318;2022-09-17T00:07:55;24.60;85.00
52739;DHT22;52466;40.122;18.318;2022-09-17T00:11:19;24.80;84.70
52739;DHT22;52466;40.122;18.318;2022-09-17T00:14:29;24.90;84.20
52739;DHT22;52466;40.122;18.318;2022-09-17T00:17:37;25.00;83.90
52739;DHT22;52466;40.122;18.318;2022-09-17T00:20:46;24.90;83.60
52739;DHT22;52466;40.122;18.318;2022-09-17T00:23:55;24.90;83.50
52739;DHT22;52466;40.122;18.318;2022-09-17T00:27:04;24.90;83.20
52739;DHT22;52466;40.122;18.318;2022-09-17T00:30:12;24.90;83.30
52739;DHT22;52466;40.122;18.318;2022-09-17T00:33:20;24.90;82.90
52739;DHT22;52466;40.122;18.318;2022-09-17T00:36:28;25.00;82.70
52739;DHT22;52466;40.122;18.318;2022-09-17T00:39:36;25.00;82.80
52739;DHT22;52466;40.122;18.318;2022-09-17T00:42:43;25.00;83.00
52739;DHT22;52466;40.122;18.318;2022-09-17T00:45:51;25.00;82.40
52739;DHT22;52466;40.122;18.318;2022-09-17T00:49:18;25.00;82.20
52739;DHT22;52466;40.122;18.318;2022-09-17T00:53:08;25.00;82.30
52739;DHT22;52466;40.122;18.318;2022-09-17T00:56:17;25.00;82.20
52739;DHT22;52466;40.122;18.318;2022-09-17T00:59:26;25.00;82.40
52739;DHT22;52466;40.122;18.318;2022-09-17T01:02:35;25.00;82.10
52739;DHT22;52466;40.122;18.318;2022-09-17T01:30:18;25.00;80.00
52739;DHT22;52466;40.122;18.318;2022-09-17T01:37:16;24.70;84.30
52739;DHT22;52466;40.122;18.318;2022-09-17T01:44:24;24.10;87.70
52739;DHT22;52466;40.122;18.318;2022-09-17T01:47:46;24.00;87.90
52739;DHT22;52466;40.122;18.318;2022-09-17T01:51:10;23.90;88.40
52739;DHT22;52466;40.122;18.318;2022-09-17T01:54:25;24.00;88.20
52739;DHT22;52466;40.122;18.318;2022-09-17T01:57:59;23.80;88.60
52739;DHT22;52466;40.122;18.318;2022-09-17T02:01:10;23.70;89.10
52739;DHT22;52466;40.122;18.318;2022-09-17T02:04:25;23.60;89.50
52739;DHT22;52466;40.122;18.318;2022-09-17T02:07:40;23.50;89.50
52739;DHT22;52466;40.122;18.318;2022-09-17T02:11:06;23.40;90.70
52739;DHT22;52466;40.122;18.318;2022-09-17T02:14:20;23.20;90.40
52739;DHT22;52466;40.122;18.318;2022-09-17T02:17:34;23.30;90.30
52739;DHT22;52466;40.122;18.318;2022-09-17T02:20:49;23.30;90.10
52739;DHT22;52466;40.122;18.318;2022-09-17T02:30:41;23.00;91.50
52739;DHT22;52466;40.122;18.318;2022-09-17T02:33:53;23.00;91.40
52739;DHT22;52466;40.122;18.318;2022-09-17T02:37:20;23.10;90.20
52739;DHT22;52466;40.122;18.318;2022-09-17T02:40:33;23.30;90.00
52739;DHT22;52466;40.122;18.318;2022-09-17T03:05:06;23.10;90.50
52739;DHT22;52466;40.122;18.318;2022-09-17T03:08:15;23.00;90.20
52739;DHT22;52466;40.122;18.318;2022-09-17T03:11:24;23.00;91.10
52739;DHT22;52466;40.122;18.318;2022-09-17T03:14:32;23.10;90.60
52739;DHT22;52466;40.122;18.318;2022-09-17T03:17:40;23.30;90.90
52739;DHT22;52466;40.122;18.318;2022-09-17T03:20:48;23.40;90.00
52739;DHT22;52466;40.122;18.318;2022-09-17T03:23:56;23.20;90.10
52739;DHT22;52466;40.122;18.318;2022-09-17T03:27:06;23.10;90.10
52739;DHT22;52466;40.122;18.318;2022-09-17T03:30:14;23.20;90.30
52739;DHT22;52466;40.122;18.318;2022-09-17T03:33:21;23.30;90.00
52739;DHT22;52466;40.122;18.318;2022-09-17T03:36:29;23.10;90.20
52739;DHT22;52466;40.122;18.318;2022-09-17T03:39:37;23.00;90.60
52739;DHT22;52466;40.122;18.318;2022-09-17T03:42:44;23.10;90.70
52739;DHT22;52466;40.122;18.318;2022-09-17T03:45:52;23.10;91.00
52739;DHT22;52466;40.122;18.318;2022-09-17T03:49:00;23.20;91.50
52739;DHT22;52466;40.122;18.318;2022-09-17T03:52:07;23.20;92.70
52739;DHT22;52466;40.122;18.318;2022-09-17T03:55:15;23.50;93.00
52739;DHT22;52466;40.122;18.318;2022-09-17T03:58:23;23.60;93.50
52739;DHT22;52466;40.122;18.318;2022-09-17T04:01:31;23.60;93.80
52739;DHT22;52466;40.122;18.318;2022-09-17T04:04:38;23.80;94.20
52739;DHT22;52466;40.122;18.318;2022-09-17T04:07:46;23.80;94.40
52739;DHT22;52466;40.122;18.318;2022-09-17T04:10:54;23.90;94.60
52739;DHT22;52466;40.122;18.318;2022-09-17T04:14:02;24.10;94.70
52739;DHT22;52466;40.122;18.318;2022-09-17T04:17:09;24.10;94.90
52739;DHT22;52466;40.122;18.318;2022-09-17T04:20:18;24.20;94.80
52739;DHT22;52466;40.122;18.318;2022-09-17T04:23:26;24.30;94.90
52739;DHT22;52466;40.122;18.318;2022-09-17T04:26:33;24.30;95.10
52739;DHT22;52466;40.122;18.318;2022-09-17T04:29:41;24.30;95.10
52739;DHT22;52466;40.122;18.318;2022-09-17T04:32:48;24.30;95.10
52739;DHT22;52466;40.122;18.318;2022-09-17T04:35:56;24.40;95.00
52739;DHT22;52466;40.122;18.318;2022-09-17T04:39:04;24.30;94.90
52739;DHT22;52466;40.122;18.318;2022-09-17T04:42:38;24.40;95.00
52739;DHT22;52466;40.122;18.318;2022-09-17T04:45:46;24.40;95.00
52739;DHT22;52466;40.122;18.318;2022-09-17T04:48:54;24.40;95.00
52739;DHT22;52466;40.122;18.318;2022-09-17T04:52:19;24.50;94.90
52739;DHT22;52466;40.122;18.318;2022-09-17T04:55:49;24.50;94.50
52739;DHT22;52466;40.122;18.318;2022-09-17T04:58:57;24.50;94.30
52739;DHT22;52466;40.122;18.318;2022-09-17T05:02:05;24.50;93.60
52739;DHT22;52466;40.122;18.318;2022-09-17T05:05:14;24.60;93.30
52739;DHT22;52466;40.122;18.318;2022-09-17T05:08:22;24.60;93.50
52739;DHT22;52466;40.122;18.318;2022-09-17T05:11:31;24.70;93.90
52739;DHT22;52466;40.122;18.318;2022-09-17T05:14:40;24.90;93.80
52739;DHT22;52466;40.122;18.318;2022-09-17T05:17:47;25.00;93.70
52739;DHT22;52466;40.122;18.318;2022-09-17T05:20:55;25.00;93.60
52739;DHT22;52466;40.122;18.318;2022-09-17T05:24:02;25.10;93.50
52739;DHT22;52466;40.122;18.318;2022-09-17T05:27:10;25.10;93.40
52739;DHT22;52466;40.122;18.318;2022-09-17T05:30:18;25.20;93.70
52739;DHT22;52466;40.122;18.318;2022-09-17T05:33:27;25.30;93.50
52739;DHT22;52466;40.122;18.318;2022-09-17T05:36:34;25.50;93.00
52739;DHT22;52466;40.122;18.318;2022-09-17T05:39:42;25.40;92.80
52739;DHT22;52466;40.122;18.318;2022-09-17T05:42:49;25.30;93.30
52739;DHT22;52466;40.122;18.318;2022-09-17T05:46:04;25.30;93.50
52739;DHT22;52466;40.122;18.318;2022-09-17T05:49:13;25.20;93.30
52739;DHT22;52466;40.122;18.318;2022-09-17T05:52:26;25.30;93.20
52739;DHT22;52466;40.122;18.318;2022-09-17T05:55:34;25.50;92.80
52739;DHT22;52466;40.122;18.318;2022-09-17T05:58:42;25.50;92.80
52739;DHT22;52466;40.122;18.318;2022-09-17T06:01:49;25.30;92.80
52739;DHT22;52466;40.122;18.318;2022-09-17T06:04:57;25.20;93.30
52739;DHT22;52466;40.122;18.318;2022-09-17T06:08:08;25.10;93.80
52739;DHT22;52466;40.122;18.318;2022-09-17T06:11:16;25.20;93.90
52739;DHT22;52466;40.122;18.318;2022-09-17T06:14:23;25.40;93.40
52739;DHT22;52466;40.122;18.318;2022-09-17T06:17:34;25.80;92.60
52739;DHT22;52466;40.122;18.318;2022-09-17T06:20:42;26.40;90.70
52739;DHT22;52466;40.122;18.318;2022-09-17T06:23:50;29.60;77.40
52739;DHT22;52466;40.122;18.318;2022-09-17T06:26:58;30.60;76.00
52739;DHT22;52466;40.122;18.318;2022-09-17T06:30:06;28.90;80.00
52739;DHT22;52466;40.122;18.318;2022-09-17T06:33:14;31.10;74.70
52739;DHT22;52466;40.122;18.318;2022-09-17T06:36:22;31.90;70.60
52739;DHT22;52466;40.122;18.318;2022-09-17T06:39:30;28.30;81.10
52739;DHT22;52466;40.122;18.318;2022-09-17T06:42:41;26.80;86.90
52739;DHT22;52466;40.122;18.318;2022-09-17T06:45:59;26.80;87.40
52739;DHT22;52466;40.122;18.318;2022-09-17T06:49:07;27.00;87.20
52739;DHT22;52466;40.122;18.318;2022-09-17T06:52:15;26.50;88.50
52739;DHT22;52466;40.122;18.318;2022-09-17T06:55:23;26.40;89.00
52739;DHT22;52466;40.122;18.318;2022-09-17T06:58:30;26.40;88.90
52739;DHT22;52466;40.122;18.318;2022-09-17T07:01:38;26.70;88.00
52739;DHT22;52466;40.122;18.318;2022-09-17T07:04:46;28.60;80.30
52739;DHT22;52466;40.122;18.318;2022-09-17T07:07:54;27.80;83.80
52739;DHT22;52466;40.122;18.318;2022-09-17T07:11:01;27.30;85.50
52739;DHT22;52466;40.122;18.318;2022-09-17T07:14:09;27.10;86.00
52739;DHT22;52466;40.122;18.318;2022-09-17T07:17:17;27.00;86.40
52739;DHT22;52466;40.122;18.318;2022-09-17T07:20:24;26.90;85.50
52739;DHT22;52466;40.122;18.318;2022-09-17T07:23:34;26.80;85.80
52739;DHT22;52466;40.122;18.318;2022-09-17T07:26:42;26.70;86.10
52739;DHT22;52466;40.122;18.318;2022-09-17T07:29:49;26.50;86.90
52739;DHT22;52466;40.122;18.318;2022-09-17T07:33:00;26.50;86.30
52739;DHT22;52466;40.122;18.318;2022-09-17T07:36:34;26.50;86.40
52739;DHT22;52466;40.122;18.318;2022-09-17T07:39:42;26.50;86.80
52739;DHT22;52466;40.122;18.318;2022-09-17T07:42:50;26.40;85.90
52739;DHT22;52466;40.122;18.318;2022-09-17T07:45:59;26.40;85.50
52739;DHT22;52466;40.122;18.318;2022-09-17T07:49:07;26.50;85.90
52739;DHT22;52466;40.122;18.318;2022-09-17T07:52:14;26.50;86.00
52739;DHT22;52466;40.122;18.318;2022-09-17T07:55:22;26.70;85.80
52739;DHT22;52466;40.122;18.318;2022-09-17T07:58:32;26.70;86.00
52739;DHT22;52466;40.122;18.318;2022-09-17T08:01:40;26.60;86.40
52739;DHT22;52466;40.122;18.318;2022-09-17T08:04:47;26.50;86.80
52739;DHT22;52466;40.122;18.318;2022-09-17T08:07:55;26.30;87.10
52739;DHT22;52466;40.122;18.318;2022-09-17T08:14:13;25.10;84.20
52739;DHT22;52466;40.122;18.318;2022-09-17T08:17:26;24.90;84.30
52739;DHT22;52466;40.122;18.318;2022-09-17T08:20:33;25.20;84.20
52739;DHT22;52466;40.122;18.318;2022-09-17T08:23:42;25.10;83.50
52739;DHT22;52466;40.122;18.318;2022-09-17T08:26:50;25.10;84.10
52739;DHT22;52466;40.122;18.318;2022-09-17T08:29:58;25.10;83.50
52739;DHT22;52466;40.122;18.318;2022-09-17T08:33:37;25.20;83.90
52739;DHT22;52466;40.122;18.318;2022-09-17T08:36:45;25.20;85.20
52739;DHT22;52466;40.122;18.318;2022-09-17T08:39:53;24.90;85.90
52739;DHT22;52466;40.122;18.318;2022-09-17T08:43:01;25.00;86.90
52739;DHT22;52466;40.122;18.318;2022-09-17T08:46:10;25.00;86.50
52739;DHT22;52466;40.122;18.318;2022-09-17T08:56:09;25.10;88.00
52739;DHT22;52466;40.122;18.318;2022-09-17T08:59:36;24.90;88.20
52739;DHT22;52466;40.122;18.318;2022-09-17T09:03:07;24.90;89.00
52739;DHT22;52466;40.122;18.318;2022-09-17T09:06:26;24.80;88.30
52739;DHT22;52466;40.122;18.318;2022-09-17T09:09:48;24.80;88.90
52739;DHT22;52466;40.122;18.318;2022-09-17T09:12:59;24.60;89.20
52739;DHT22;52466;40.122;18.318;2022-09-17T09:16:17;24.70;90.20
52739;DHT22;52466;40.122;18.318;2022-09-17T09:19:33;25.00;90.10
52739;DHT22;52466;40.122;18.318;2022-09-17T09:22:54;25.20;89.70
52739;DHT22;52466;40.122;18.318;2022-09-17T09:26:45;25.00;89.40
52739;DHT22;52466;40.122;18.318;2022-09-17T09:30:10;25.50;88.80
52739;DHT22;52466;40.122;18.318;2022-09-17T09:33:30;26.20;86.40
52739;DHT22;52466;40.122;18.318;2022-09-17T09:36:39;27.40;83.70
52739;DHT22;52466;40.122;18.318;2022-09-17T09:43:44;27.70;79.50
52739;DHT22;52466;40.122;18.318;2022-09-17T09:54:42;27.50;75.80
52739;DHT22;52466;40.122;18.318;2022-09-17T09:57:45;27.50;74.60
52739;DHT22;52466;40.122;18.318;2022-09-17T10:00:54;27.50;73.30
52739;DHT22;52466;40.122;18.318;2022-09-17T10:04:18;27.60;71.90
52739;DHT22;52466;40.122;18.318;2022-09-17T10:07:26;28.40;69.60
52739;DHT22;52466;40.122;18.318;2022-09-17T10:10:36;28.80;68.10
52739;DHT22;52466;40.122;18.318;2022-09-17T10:13:45;28.30;68.80
52739;DHT22;52466;40.122;18.318;2022-09-17T10:17:24;27.70;67.20
52739;DHT22;52466;40.122;18.318;2022-09-17T10:20:32;27.40;64.80
52739;DHT22;52466;40.122;18.318;2022-09-17T10:23:58;27.20;62.80
52739;DHT22;52466;40.122;18.318;2022-09-17T10:27:15;27.10;61.00
52739;DHT22;52466;40.122;18.318;2022-09-17T10:30:23;27.30;60.70
52739;DHT22;52466;40.122;18.318;2022-09-17T10:33:32;27.40;60.00
52739;DHT22;52466;40.122;18.318;2022-09-17T10:36:42;27.20;58.90
52739;DHT22;52466;40.122;18.318;2022-09-17T10:39:50;27.10;61.00
52739;DHT22;52466;40.122;18.318;2022-09-17T10:46:27;26.90;63.60
52739;DHT22;52466;40.122;18.318;2022-09-17T10:49:42;26.80;64.70
52739;DHT22;52466;40.122;18.318;2022-09-17T10:52:59;26.80;64.10
52739;DHT22;52466;40.122;18.318;2022-09-17T11:04:12;26.90;65.40
52739;DHT22;52466;40.122;18.318;2022-09-17T11:06:47;27.00;64.50
52739;DHT22;52466;40.122;18.318;2022-09-17T11:27:54;25.60;71.80
52739;DHT22;52466;40.122;18.318;2022-09-17T11:44:29;26.30;68.70
52739;DHT22;52466;40.122;18.318;2022-09-17T11:47:49;26.50;67.60
52739;DHT22;52466;40.122;18.318;2022-09-17T11:54:46;26.90;65.20
52739;DHT22;52466;40.122;18.318;2022-09-17T11:58:09;27.00;64.30
52739;DHT22;52466;40.122;18.318;2022-09-17T12:04:57;27.00;62.20
52739;DHT22;52466;40.122;18.318;2022-09-17T12:08:18;27.00;58.80
52739;DHT22;52466;40.122;18.318;2022-09-17T12:11:36;27.20;57.60
52739;DHT22;52466;40.122;18.318;2022-09-17T12:15:02;27.50;56.60
52739;DHT22;52466;40.122;18.318;2022-09-17T12:21:46;27.70;55.80
52739;DHT22;52466;40.122;18.318;2022-09-17T12:24:55;27.80;56.60
52739;DHT22;52466;40.122;18.318;2022-09-17T12:28:14;27.80;55.10
52739;DHT22;52466;40.122;18.318;2022-09-17T12:31:37;27.80;55.00
52739;DHT22;52466;40.122;18.318;2022-09-17T12:39:29;27.80;54.00
52739;DHT22;52466;40.122;18.318;2022-09-17T12:42:58;27.70;53.60
52739;DHT22;52466;40.122;18.318;2022-09-17T12:57:13;28.00;53.60
52739;DHT22;52466;40.122;18.318;2022-09-17T13:00:16;28.00;52.70
52739;DHT22;52466;40.122;18.318;2022-09-17T13:03:30;27.90;52.70
52739;DHT22;52466;40.122;18.318;2022-09-17T13:10:28;28.50;52.20
52739;DHT22;52466;40.122;18.318;2022-09-17T13:17:21;28.90;51.40
52739;DHT22;52466;40.122;18.318;2022-09-17T13:20:33;29.00;52.50
52739;DHT22;52466;40.122;18.318;2022-09-17T13:23:47;28.90;52.20
52739;DHT22;52466;40.122;18.318;2022-09-17T13:26:58;28.80;52.80
52739;DHT22;52466;40.122;18.318;2022-09-17T13:30:08;28.90;53.00
52739;DHT22;52466;40.122;18.318;2022-09-17T13:33:53;28.70;52.70
52739;DHT22;52466;40.122;18.318;2022-09-17T13:37:02;28.60;52.70
52739;DHT22;52466;40.122;18.318;2022-09-17T13:43:33;28.70;52.60
52739;DHT22;52466;40.122;18.318;2022-09-17T13:46:49;28.60;52.20
52739;DHT22;52466;40.122;18.318;2022-09-17T13:50:02;28.50;52.80
52739;DHT22;52466;40.122;18.318;2022-09-17T13:56:36;28.80;51.40
52739;DHT22;52466;40.122;18.318;2022-09-17T13:59:56;28.70;51.00
52739;DHT22;52466;40.122;18.318;2022-09-17T14:06:47;28.90;51.60
52739;DHT22;52466;40.122;18.318;2022-09-17T14:10:00;28.90;51.10
52739;DHT22;52466;40.122;18.318;2022-09-17T14:19:52;28.80;50.50
52739;DHT22;52466;40.122;18.318;2022-09-17T14:23:01;28.80;49.90
52739;DHT22;52466;40.122;18.318;2022-09-17T14:26:55;28.80;49.50
52739;DHT22;52466;40.122;18.318;2022-09-17T14:33:30;28.90;49.90
52739;DHT22;52466;40.122;18.318;2022-09-17T14:36:41;28.80;50.00
52739;DHT22;52466;40.122;18.318;2022-09-17T14:39:50;28.80;51.20
52739;DHT22;52466;40.122;18.318;2022-09-17T14:42:58;28.90;51.70
52739;DHT22;52466;40.122;18.318;2022-09-17T14:46:09;28.60;52.50
52739;DHT22;52466;40.122;18.318;2022-09-17T14:49:26;28.60;52.40
52739;DHT22;52466;40.122;18.318;2022-09-17T14:52:37;28.60;52.50
52739;DHT22;52466;40.122;18.318;2022-09-17T14:55:46;28.70;52.80
52739;DHT22;52466;40.122;18.318;2022-09-17T14:58:55;28.60;53.00
52739;DHT22;52466;40.122;18.318;2022-09-17T15:05:29;28.50;52.40
52739;DHT22;52466;40.122;18.318;2022-09-17T15:08:44;28.50;51.20
52739;DHT22;52466;40.122;18.318;2022-09-17T15:11:54;28.50;50.70
52739;DHT22;52466;40.122;18.318;2022-09-17T15:15:02;28.50;51.20
52739;DHT22;52466;40.122;18.318;2022-09-17T15:18:13;28.50;52.60
52739;DHT22;52466;40.122;18.318;2022-09-17T15:21:33;28.50;53.80
52739;DHT22;52466;40.122;18.318;2022-09-17T15:25:00;28.50;54.00
52739;DHT22;52466;40.122;18.318;2022-09-17T15:28:28;28.40;54.50
52739;DHT22;52466;40.122;18.318;2022-09-17T15:31:36;28.30;54.80
52739;DHT22;52466;40.122;18.318;2022-09-17T15:34:44;28.20;55.30
52739;DHT22;52466;40.122;18.318;2022-09-17T15:37:54;28.10;55.70
52739;DHT22;52466;40.122;18.318;2022-09-17T15:44:25;28.00;58.20
52739;DHT22;52466;40.122;18.318;2022-09-17T15:47:55;27.90;59.30
52739;DHT22;52466;40.122;18.318;2022-09-17T15:51:05;27.80;59.50
52739;DHT22;52466;40.122;18.318;2022-09-17T15:54:30;27.70;59.40
52739;DHT22;52466;40.122;18.318;2022-09-17T15:58:52;27.60;59.80
52739;DHT22;52466;40.122;18.318;2022-09-17T16:04:47;27.50;60.50
52739;DHT22;52466;40.122;18.318;2022-09-17T16:08:16;27.50;60.60
52739;DHT22;52466;40.122;18.318;2022-09-17T16:11:26;27.40;61.90
52739;DHT22;52466;40.122;18.318;2022-09-17T16:14:34;27.20;62.00
52739;DHT22;52466;40.122;18.318;2022-09-17T16:17:43;27.20;61.10
52739;DHT22;52466;40.122;18.318;2022-09-17T16:20:51;27.10;60.40
52739;DHT22;52466;40.122;18.318;2022-09-17T16:23:59;27.10;60.90
52739;DHT22;52466;40.122;18.318;2022-09-17T16:27:11;27.00;61.10
52739;DHT22;52466;40.122;18.318;2022-09-17T16:30:22;26.90;61.40
52739;DHT22;52466;40.122;18.318;2022-09-17T16:33:30;26.80;61.70
52739;DHT22;52466;40.122;18.318;2022-09-17T16:36:37;26.70;61.30
52739;DHT22;52466;40.122;18.318;2022-09-17T16:39:45;26.70;61.40
52739;DHT22;52466;40.122;18.318;2022-09-17T16:42:53;26.60;61.30
52739;DHT22;52466;40.122;18.318;2022-09-17T16:46:05;26.60;61.50
52739;DHT22;52466;40.122;18.318;2022-09-17T16:49:14;26.50;61.70
52739;DHT22;52466;40.122;18.318;2022-09-17T16:52:22;26.40;62.40
52739;DHT22;52466;40.122;18.318;2022-09-17T16:55:30;26.40;62.80
52739;DHT22;52466;40.122;18.318;2022-09-17T16:58:38;26.30;62.60
52739;DHT22;52466;40.122;18.318;2022-09-17T17:01:46;26.30;62.80
52739;DHT22;52466;40.122;18.318;2022-09-17T17:04:56;26.20;63.40
52739;DHT22;52466;40.122;18.318;2022-09-17T17:08:05;26.20;63.60
52739;DHT22;52466;40.122;18.318;2022-09-17T17:11:13;26.10;64.10
52739;DHT22;52466;40.122;18.318;2022-09-17T17:14:21;26.10;64.30
52739;DHT22;52466;40.122;18.318;2022-09-17T17:17:28;26.00;64.70
52739;DHT22;52466;40.122;18.318;2022-09-17T17:20:36;26.00;65.10
52739;DHT22;52466;40.122;18.318;2022-09-17T17:23:44;25.90;65.60
52739;DHT22;52466;40.122;18.318;2022-09-17T17:26:54;25.90;66.10
52739;DHT22;52466;40.122;18.318;2022-09-17T17:30:02;25.80;66.70
52739;DHT22;52466;40.122;18.318;2022-09-17T17:33:12;25.80;67.00
52739;DHT22;52466;40.122;18.318;2022-09-17T17:36:20;25.80;67.50
52739;DHT22;52466;40.122;18.318;2022-09-17T17:39:28;25.70;68.00
52739;DHT22;52466;40.122;18.318;2022-09-17T17:42:36;25.70;68.40
52739;DHT22;52466;40.122;18.318;2022-09-17T17:45:45;25.70;68.50
52739;DHT22;52466;40.122;18.318;2022-09-17T17:48:53;25.60;69.10
52739;DHT22;52466;40.122;18.318;2022-09-17T17:52:01;25.60;69.30
52739;DHT22;52466;40.122;18.318;2022-09-17T17:55:09;25.60;69.10
52739;DHT22;52466;40.122;18.318;2022-09-17T17:58:16;25.60;69.10
52739;DHT22;52466;40.122;18.318;2022-09-17T18:01:27;25.60;69.10
52739;DHT22;52466;40.122;18.318;2022-09-17T18:04:34;25.50;69.30
52739;DHT22;52466;40.122;18.318;2022-09-17T18:07:42;25.50;69.60
52739;DHT22;52466;40.122;18.318;2022-09-17T18:10:51;25.40;69.70
52739;DHT22;52466;40.122;18.318;2022-09-17T18:13:59;25.40;69.90
52739;DHT22;52466;40.122;18.318;2022-09-17T18:17:08;25.50;69.80
52739;DHT22;52466;40.122;18.318;2022-09-17T18:20:16;25.40;70.10
52739;DHT22;52466;40.122;18.318;2022-09-17T18:23:25;25.40;70.10
52739;DHT22;52466;40.122;18.318;2022-09-17T18:26:32;25.40;70.20
52739;DHT22;52466;40.122;18.318;2022-09-17T18:29:40;25.20;70.70
52739;DHT22;52466;40.122;18.318;2022-09-17T18:32:48;25.30;70.70
52739;DHT22;52466;40.122;18.318;2022-09-17T18:36:02;25.30;70.20
52739;DHT22;52466;40.122;18.318;2022-09-17T18:39:11;25.40;70.00
52739;DHT22;52466;40.122;18.318;2022-09-17T18:42:21;25.40;68.90
52739;DHT22;52466;40.122;18.318;2022-09-17T18:45:28;25.50;67.30
52739;DHT22;52466;40.122;18.318;2022-09-17T18:48:36;25.50;67.50
52739;DHT22;52466;40.122;18.318;2022-09-17T18:51:44;25.50;67.90
52739;DHT22;52466;40.122;18.318;2022-09-17T18:54:51;25.50;67.30
52739;DHT22;52466;40.122;18.318;2022-09-17T18:57:59;25.50;67.60
52739;DHT22;52466;40.122;18.318;2022-09-17T19:01:07;25.50;66.90
52739;DHT22;52466;40.122;18.318;2022-09-17T19:04:14;25.40;66.90
52739;DHT22;52466;40.122;18.318;2022-09-17T19:07:22;25.20;67.30
52739;DHT22;52466;40.122;18.318;2022-09-17T19:10:30;24.30;70.20
52739;DHT22;52466;40.122;18.318;2022-09-17T19:13:41;23.80;71.90
52739;DHT22;52466;40.122;18.318;2022-09-17T19:16:49;23.50;72.40
52739;DHT22;52466;40.122;18.318;2022-09-17T19:19:57;23.30;72.90
52739;DHT22;52466;40.122;18.318;2022-09-17T19:23:05;23.20;73.20
52739;DHT22;52466;40.122;18.318;2022-09-17T19:26:15;23.30;72.60
52739;DHT22;52466;40.122;18.318;2022-09-17T19:29:24;23.10;72.10
52739;DHT22;52466;40.122;18.318;2022-09-17T19:32:32;23.00;72.30
52739;DHT22;52466;40.122;18.318;2022-09-17T19:35:40;22.70;73.20
52739;DHT22;52466;40.122;18.318;2022-09-17T19:38:48;22.80;72.60
52739;DHT22;52466;40.122;18.318;2022-09-17T19:41:55;22.70;72.80
52739;DHT22;52466;40.122;18.318;2022-09-17T19:45:03;22.60;72.10
52739;DHT22;52466;40.122;18.318;2022-09-17T19:48:11;22.70;72.20
52739;DHT22;52466;40.122;18.318;2022-09-17T19:51:20;22.70;71.70
52739;DHT22;52466;40.122;18.318;2022-09-17T19:54:31;22.70;71.90
52739;DHT22;52466;40.122;18.318;2022-09-17T19:57:40;22.60;71.40
52739;DHT22;52466;40.122;18.318;2022-09-17T20:00:53;22.40;71.10
52739;DHT22;52466;40.122;18.318;2022-09-17T20:04:02;22.40;71.00
52739;DHT22;52466;40.122;18.318;2022-09-17T20:07:09;22.30;71.00
52739;DHT22;52466;40.122;18.318;2022-09-17T20:10:17;22.30;70.60
52739;DHT22;52466;40.122;18.318;2022-09-17T20:13:25;22.10;70.70
52739;DHT22;52466;40.122;18.318;2022-09-17T20:16:37;22.10;70.80
52739;DHT22;52466;40.122;18.318;2022-09-17T20:19:45;22.00;70.80
52739;DHT22;52466;40.122;18.318;2022-09-17T20:22:54;22.10;70.30
52739;DHT22;52466;40.122;18.318;2022-09-17T20:26:03;22.00;70.20
52739;DHT22;52466;40.122;18.318;2022-09-17T20:29:11;21.90;70.30
52739;DHT22;52466;40.122;18.318;2022-09-17T20:32:18;21.90;70.00
52739;DHT22;52466;40.122;18.318;2022-09-17T20:35:26;21.80;70.10
52739;DHT22;52466;40.122;18.318;2022-09-17T20:38:33;21.80;70.00
52739;DHT22;52466;40.122;18.318;2022-09-17T20:41:41;21.70;70.10
52739;DHT22;52466;40.122;18.318;2022-09-17T20:44:49;21.70;70.10
52739;DHT22;52466;40.122;18.318;2022-09-17T20:47:57;21.80;69.80
52739;DHT22;52466;40.122;18.318;2022-09-17T20:51:07;21.60;70.30
52739;DHT22;52466;40.122;18.318;2022-09-17T20:54:14;21.60;70.40
52739;DHT22;52466;40.122;18.318;2022-09-17T20:57:22;21.60;70.60
52739;DHT22;52466;40.122;18.318;2022-09-17T21:00:31;21.60;70.70
52739;DHT22;52466;40.122;18.318;2022-09-17T21:03:40;21.60;70.40
52739;DHT22;52466;40.122;18.318;2022-09-17T21:06:51;21.50;71.10
52739;DHT22;52466;40.122;18.318;2022-09-17T21:09:59;21.50;71.10
52739;DHT22;52466;40.122;18.318;2022-09-17T21:13:06;21.50;71.20
52739;DHT22;52466;40.122;18.318;2022-09-17T21:16:14;21.50;70.90
52739;DHT22;52466;40.122;18.318;2022-09-17T21:19:22;21.30;71.60
52739;DHT22;52466;40.122;18.318;2022-09-17T21:22:31;21.20;71.50
52739;DHT22;52466;40.122;18.318;2022-09-17T21:25:39;21.20;71.40
52739;DHT22;52466;40.122;18.318;2022-09-17T21:28:48;21.30;71.40
52739;DHT22;52466;40.122;18.318;2022-09-17T21:31:56;21.20;71.60
52739;DHT22;52466;40.122;18.318;2022-09-17T21:35:04;21.30;71.10
52739;DHT22;52466;40.122;18.318;2022-09-17T21:38:12;21.10;71.80
52739;DHT22;52466;40.122;18.318;2022-09-17T21:41:21;21.20;71.30
52739;DHT22;52466;40.122;18.318;2022-09-17T21:44:29;21.10;71.60
52739;DHT22;52466;40.122;18.318;2022-09-17T21:47:37;21.10;71.10
52739;DHT22;52466;40.122;18.318;2022-09-17T21:50:45;21.20;70.60
52739;DHT22;52466;40.122;18.318;2022-09-17T21:53:54;21.00;71.10
52739;DHT22;52466;40.122;18.318;2022-09-17T21:57:03;20.90;70.90
52739;DHT22;52466;40.122;18.318;2022-09-17T22:00:11;21.10;70.50
52739;DHT22;52466;40.122;18.318;2022-09-17T22:03:19;20.90;70.80
52739;DHT22;52466;40.122;18.318;2022-09-17T22:06:29;21.10;70.50
52739;DHT22;52466;40.122;18.318;2022-09-17T22:09:37;20.90;70.60
52739;DHT22;52466;40.122;18.318;2022-09-17T22:12:45;21.00;70.40
52739;DHT22;52466;40.122;18.318;2022-09-17T22:16:00;20.80;70.90
52739;DHT22;52466;40.122;18.318;2022-09-17T22:19:15;20.80;71.00
52739;DHT22;52466;40.122;18.318;2022-09-17T22:22:23;20.80;71.10
52739;DHT22;52466;40.122;18.318;2022-09-17T22:25:31;20.60;71.40
52739;DHT22;52466;40.122;18.318;2022-09-17T22:28:39;20.60;71.50
52739;DHT22;52466;40.122;18.318;2022-09-17T22:31:46;20.50;71.50
52739;DHT22;52466;40.122;18.318;2022-09-17T22:34:54;20.60;71.30
52739;DHT22;52466;40.122;18.318;2022-09-17T22:38:02;20.60;70.60
52739;DHT22;52466;40.122;18.318;2022-09-17T22:41:27;20.60;70.30
52739;DHT22;52466;40.122;18.318;2022-09-17T22:44:35;20.60;70.00
52739;DHT22;52466;40.122;18.318;2022-09-17T22:47:43;20.50;70.50
52739;DHT22;52466;40.122;18.318;2022-09-17T22:50:51;20.40;70.60
52739;DHT22;52466;40.122;18.318;2022-09-17T22:53:59;20.20;71.10
52739;DHT22;52466;40.122;18.318;2022-09-17T22:57:06;20.30;71.00